Página principal
METAR-TAF:

METAR-TAF

Aeroportos :

Xian, China

Aeroporto Internacional de Xi'an Xianyang

latitude: 34-26N, longitude: 108-45E, altura: 479 m

Observação actual do tempo

O boletim foi feito há 1 hora e 9 minutos, às 07:00 UTC
Vento 6 kt de nor-nordeste
Temperatura 29°C
Humidade 66%
Pressão 1005 hPa
Visibilidade 10 km ou mais
Nuvens fragmentadasa uma altura de 4000 ft

METAR: ZLXY 210700Z 03003MPS 9999 BKN040 29/22 Q1005 NOSIG

Hora: 16:09 (08:09 UTC)

Previsão

O boletim foi feito há 4 horas e 56 minutos, às 03:13 UTC
Previsão válida de 21 às 06 UTC a 22 às 06 UTC
Vento 6 kt de es-nordeste
Visibilidade: 3000 m
bruma

TAF: ZLXY 210313Z 2106/2206 06003MPS 3000 HZ NSC TX31/2108Z TN23/2121Z

Observações e previsões do tempo de mais de 4000 aeroportos (mensagens METAR e TAF).

As estações disponíveis são os pontos amarelos e vermelhos sobre o mapa.

Mova o rato sobre o mapa para ver o nome da estação.

Depois clique no ponto para visualizar as observações e previsões meteorológicas.

Para alterar o mapa : clique nos botões verdes com uma cruz preta para aumentar o zoom; no botão verde com uma pitada de zoom; ou nas setas verdes para mapas adjacentes.


METAR-TAF: